Afton Municipal Airport, WY

3:10 PM MST on November 13, 2019 (GMT -0700)
Afton Municipal

Weather History for KAFO - September, 2019

Change the Weather History Date:

Saturday, September 14, 2019

  Actual Average Record
Temperature  
Mean Temperature 55 °F -  
Max Temperature 75 °F 71 °F 77 °F (2018)
Min Temperature 35 °F 33 °F 30 °F (2018)
Degree Days  
Heating Degree Days 10    
Growing Degree Days 5 (Base 50)    
Moisture  
Dew Point 36 °F    
Average Humidity 57    
Maximum Humidity 93    
Minimum Humidity 21    
Precipitation  
Precipitation 0.00 in - - ()
Sea Level Pressure  
Sea Level Pressure 30.27 in    
Wind  
Wind Speed 2 mph ()    
Max Wind Speed 12 mph    
Max Gust Speed 18 mph    
Visibility 10.0 miles    
Events      
Averages and records for this station are not official NWS values.
T = Trace of Precipitation, MM = Missing Value Source: Averaged Metar Reports

Daily Weather History Graph

Daily Weather History Graph

Search for Another Location

Airport or City:

Astronomy

Sep. 14, 2019 Rise Set
Actual Time 7:02 AM MDT 7:35 PM MDT
Civil Twilight 6:33 AM MDT 8:03 PM MDT
Nautical Twilight 6:00 AM MDT 8:37 PM MDT
Astronomical Twilight 5:25 AM MDT 9:11 PM MDT
Moon 8:18 PM MDT (9/14) 7:18 AM MDT (9/14)
Length of Visible Light 13h 30m
Length of Day
12h 33m
Full, 100% of the Moon is Illuminated
Sep 14
Full
Sep 21
Last Quarter
Sep 28
New
Oct 5
First Quarter
Oct 13
Full

Hourly Weather History & Observations

Time (MDT) Temp. Windchill Dew Point Humidity Pressure Visibility Wind Dir Wind Speed Gust Speed Precip Events Conditions
12:15 AM 44.6 °F 43.1 °F 37.4 °F 76% 30.30 in 10.0 mi South 3.5 mph - N/A   Clear
12:35 AM 42.8 °F - 37.4 °F 81% 30.30 in 10.0 mi North - - N/A   Clear
12:55 AM 44.6 °F - 37.4 °F 76% 30.30 in 10.0 mi North - - N/A   Clear
1:15 AM 42.8 °F - 37.4 °F 81% 30.31 in 10.0 mi North - - N/A   Clear
1:35 AM 42.8 °F - 37.4 °F 81% 30.31 in 10.0 mi North - - N/A   Clear
1:55 AM 39.2 °F - 35.6 °F 87% 30.31 in 10.0 mi North - - N/A   Clear
2:15 AM 41.0 °F - 37.4 °F 87% 30.31 in 10.0 mi North - - N/A   Clear
2:35 AM 41.0 °F - 35.6 °F 81% 30.31 in 10.0 mi North - - N/A   Clear
2:55 AM 39.2 °F 37.0 °F 35.6 °F 87% 30.31 in 10.0 mi South 3.5 mph - N/A   Clear
3:15 AM 41.0 °F - 37.4 °F 87% 30.31 in 10.0 mi North - - N/A   Clear
3:35 AM 41.0 °F - 35.6 °F 81% 30.31 in 10.0 mi Calm Calm - N/A   Clear
3:55 AM 37.4 °F - 33.8 °F 87% 30.31 in 10.0 mi Calm Calm - N/A   Clear
4:15 AM 37.4 °F - 35.6 °F 93% 30.31 in 10.0 mi Calm Calm - N/A   Clear
4:35 AM 39.2 °F - 35.6 °F 87% 30.31 in 10.0 mi Calm Calm - N/A   Clear
4:55 AM 39.2 °F - 35.6 °F 87% 30.31 in 10.0 mi Calm Calm - N/A   Clear
5:15 AM 35.6 °F - 33.8 °F 93% 30.31 in 10.0 mi Calm Calm - N/A   Clear
5:35 AM 35.6 °F - 33.8 °F 93% 30.31 in 10.0 mi Calm Calm - N/A   Clear
5:55 AM 35.6 °F 32.8 °F 33.8 °F 93% 30.31 in 10.0 mi NNW 3.5 mph - N/A   Clear
6:15 AM 37.4 °F 34.9 °F 35.6 °F 93% 30.31 in 10.0 mi NNE 3.5 mph - N/A   Clear
6:35 AM 35.6 °F - 33.8 °F 93% 30.31 in 10.0 mi Calm Calm - N/A   Clear
6:55 AM 35.6 °F - 33.8 °F 93% 30.31 in 10.0 mi Calm Calm - N/A   Clear
7:15 AM 35.6 °F - 33.8 °F 93% 30.32 in 10.0 mi Calm Calm - N/A   Clear
7:35 AM 37.4 °F - 33.8 °F 87% 30.32 in 10.0 mi Calm Calm - N/A   Clear
8:00 AM 37.4 °F - 33.8 °F 87% 30.32 in 10.0 mi Calm Calm - N/A   Clear
8:15 AM 41.0 °F - 35.6 °F 81% 30.32 in 10.0 mi Calm Calm - N/A   Clear
8:35 AM 42.8 °F - 37.4 °F 81% 30.32 in 10.0 mi Calm Calm - N/A   Clear
8:55 AM 46.4 °F - 35.6 °F 66% 30.33 in 10.0 mi Calm Calm - N/A   Clear
9:15 AM 48.2 °F - 37.4 °F 66% 30.33 in 10.0 mi Calm Calm - N/A   Clear
9:35 AM 50.0 °F - 35.6 °F 58% 30.33 in 10.0 mi Calm Calm - N/A   Clear
9:55 AM 53.6 °F - 37.4 °F 54% 30.33 in 10.0 mi Calm Calm - N/A   Clear
10:15 AM 55.4 °F - 37.4 °F 51% 30.33 in 10.0 mi Calm Calm - N/A   Clear
10:35 AM 57.2 °F - 37.4 °F 48% 30.33 in 10.0 mi Calm Calm - N/A   Clear
10:55 AM 60.8 °F - 41.0 °F 48% 30.31 in 10.0 mi Calm Calm - N/A   Clear
11:15 AM 62.6 °F - 41.0 °F 45% 30.31 in 10.0 mi Calm Calm - N/A   Clear
11:35 AM 64.4 °F - 42.8 °F 45% 30.30 in 10.0 mi Calm Calm - N/A   Clear
11:55 AM 68.0 °F - 42.8 °F 40% 30.29 in 10.0 mi Calm Calm - N/A   Clear
12:15 PM 71.6 °F - 33.8 °F 25% 30.28 in 10.0 mi Calm Calm - N/A   Clear
12:35 PM 71.6 °F - 33.8 °F 25% 30.28 in 10.0 mi SSE 5.8 mph - N/A   Clear
12:55 PM 73.4 °F - 33.8 °F 23% 30.28 in 10.0 mi East 6.9 mph - N/A   Clear
1:15 PM 73.4 °F - 33.8 °F 23% 30.27 in 10.0 mi Calm Calm - N/A   Clear
1:35 PM 73.4 °F - 33.8 °F 23% 30.27 in 10.0 mi WNW 6.9 mph 16.1 mph N/A   Clear
1:55 PM 73.4 °F - 33.8 °F 23% 30.27 in 10.0 mi SW 3.5 mph - N/A   Clear
2:15 PM 73.4 °F - 32.0 °F 22% 30.25 in 10.0 mi SW 5.8 mph - N/A   Clear
2:35 PM 73.4 °F - 32.0 °F 22% 30.25 in 10.0 mi SSW 10.4 mph - N/A   Clear
2:55 PM 75.2 °F - 32.0 °F 21% 30.24 in 10.0 mi South 5.8 mph - N/A   Clear
3:15 PM 75.2 °F - 33.8 °F 22% 30.24 in 10.0 mi West 10.4 mph 18.4 mph N/A   Clear
3:35 PM 75.2 °F - 33.8 °F 22% 30.23 in 10.0 mi South 8.1 mph - N/A   Clear
3:55 PM 75.2 °F - 35.6 °F 24% 30.22 in 10.0 mi SW 6.9 mph - N/A   Clear
4:15 PM 75.2 °F - 32.0 °F 21% 30.22 in 10.0 mi SSE 4.6 mph - N/A   Clear
4:35 PM 73.4 °F - 33.8 °F 23% 30.21 in 10.0 mi SSW 4.6 mph 10.4 mph N/A   Clear
4:55 PM 73.4 °F - 33.8 °F 23% 30.21 in 10.0 mi SW 11.5 mph - N/A   Clear
5:15 PM 73.4 °F - 33.8 °F 23% 30.21 in 10.0 mi SW 9.2 mph - N/A   Clear
5:35 PM 73.4 °F - 32.0 °F 22% 30.21 in 10.0 mi SSW 6.9 mph - N/A   Clear
5:55 PM 73.4 °F - 33.8 °F 23% 30.21 in 10.0 mi SSW 6.9 mph - N/A   Clear
6:15 PM 71.6 °F - 35.6 °F 27% 30.21 in 10.0 mi SW 8.1 mph - N/A   Clear
6:35 PM 68.0 °F - 39.2 °F 35% 30.20 in 10.0 mi SW 5.8 mph - N/A   Clear
6:55 PM 66.2 °F - 39.2 °F 37% 30.20 in 10.0 mi South 4.6 mph - N/A   Clear
7:15 PM 64.4 °F - 39.2 °F 40% 30.21 in 10.0 mi SSE 6.9 mph - N/A   Clear
7:35 PM 60.8 °F - 37.4 °F 42% 30.21 in 10.0 mi SSE 8.1 mph - N/A   Clear
7:55 PM 57.2 °F - 37.4 °F 48% 30.21 in 10.0 mi South 6.9 mph - N/A   Clear
8:15 PM 51.8 °F - 39.2 °F 62% 30.21 in 10.0 mi North - - N/A   Clear
8:55 PM 51.8 °F - 35.6 °F 54% 30.22 in 10.0 mi Calm Calm - N/A   Clear
9:15 PM 51.8 °F - 35.6 °F 54% 30.22 in 10.0 mi Calm Calm - N/A   Clear
9:35 PM 50.0 °F - 35.6 °F 58% 30.22 in 10.0 mi South 4.6 mph - N/A   Clear
9:55 PM 50.0 °F - 33.8 °F 54% 30.23 in 10.0 mi SSE 3.5 mph - N/A   Clear
10:15 PM 50.0 °F - 33.8 °F 54% 30.23 in 10.0 mi SSE 3.5 mph - N/A   Clear
10:35 PM 50.0 °F - 33.8 °F 54% 30.23 in 10.0 mi Calm Calm - N/A   Clear
10:55 PM 46.4 °F 45.2 °F 33.8 °F 62% 30.23 in 10.0 mi South 3.5 mph - N/A   Clear
11:15 PM 42.8 °F - 35.6 °F 76% 30.23 in 10.0 mi Calm Calm - N/A   Clear
11:35 PM 42.8 °F 41.1 °F 35.6 °F 76% 30.23 in 10.0 mi South 3.5 mph - N/A   Clear
11:55 PM 44.6 °F 42.2 °F 33.8 °F 66% 30.23 in 10.0 mi South 4.6 mph - N/A   Clear